Ashland, Nebraska
Current Conditions -  °F | °C
As of 3:55 AM on Sunday 23 Nov 2014 (Local Time) from KMLE Reporting Station
Overcast Overcast  
Wind Chill: 54°   Ceiling: 3600
Heat Index: 54°   Visibility: 10mi
Dew Point: 52°   Wind: 6mph
Humidity: 91%   Direction: 150°SSE
Pressure: 29.49"   Gusts: NA
Location:  41.04°N, 96.37°W
Report Text: KMLE 230955Z AUTO 15005KT 10SM SCT017 SCT023 OVC036 12/11 A2949 RMK AO2 T01230109
Loading
Personal Weather Stations






























Interactive Weather Map New forecast layout! Learn more

10-Day Weather Forecast

Advertisements
Track Severe Weather on mobile